Time;durP1;ratioP1;P1;durP2;ratioP2;P2;SDS_P1;SDS_P2;PMS_P1;PMS_P2;Temp;Humidity;BMP_temperature;BMP_pressure;BME280_temperature;BME280_humidity;BME280_pressure;Samples;Min_cycle;Max_cycle;Signal;HPM_P1;HPM_P2
2021/10/18 00:02:00;;;;;;;63.90;39.95;;;230.60;2252.80;;;;;;5061681;28;20050;-76
2021/10/18 00:04:26;;;;;;;56.25;34.83;;;230.60;2252.80;;;;;;5072832;28;20155;-79
2021/10/18 00:06:52;;;;;;;54.10;36.35;;;230.60;2252.80;;;;;;5055347;28;20021;-79
2021/10/18 00:09:19;;;;;;;51.80;33.25;;;230.60;2252.80;;;;;;5055301;28;20028;-77
2021/10/18 00:11:45;;;;;;;54.35;35.35;;;230.60;2252.80;;;;;;5054696;28;20032;-77
2021/10/18 00:14:11;;;;;;;51.45;34.17;;;230.60;2252.80;;;;;;5073841;28;20035;-77
2021/10/18 00:16:39;;;;;;;52.80;36.40;;;230.60;2252.80;;;;;;5075629;28;20388;-77
2021/10/18 00:19:05;;;;;;;51.88;36.03;;;230.50;2252.80;;;;;;5059503;28;20455;-76
2021/10/18 00:21:32;;;;;;;56.97;37.08;;;230.40;2252.80;;;;;;5063014;28;20024;-77
2021/10/18 00:23:57;;;;;;;58.05;35.88;;;230.40;2252.80;;;;;;5054871;28;20021;-78
2021/10/18 00:26:23;;;;;;;52.55;34.28;;;230.40;2252.80;;;;;;5081645;28;20063;-76
2021/10/18 00:28:49;;;;;;;51.15;34.55;;;205.70;2252.80;;;;;;5049336;28;20622;-78
2021/10/18 00:31:16;;;;;;;60.60;37.30;;;230.40;2252.80;;;;;;5063556;28;20024;-77
2021/10/18 00:33:42;;;;;;;56.97;36.97;;;230.40;2252.80;;;;;;5073246;28;20028;-75
2021/10/18 00:36:08;;;;;;;62.92;38.03;;;205.70;2252.80;;;;;;5073265;28;20028;-76
2021/10/18 00:38:33;;;;;;;49.85;35.45;;;230.40;2252.80;;;;;;5072970;28;20054;-76
2021/10/18 00:40:59;;;;;;;54.15;35.97;;;230.40;2252.80;;;;;;5065306;28;20484;-77
2021/10/18 00:43:25;;;;;;;56.35;33.75;;;230.40;2252.80;;;;;;5054627;28;20024;-77
2021/10/18 00:45:51;;;;;;;54.58;35.45;;;230.40;2252.80;;;;;;5061935;28;20040;-76
2021/10/18 00:48:17;;;;;;;52.92;36.72;;;230.50;2252.80;;;;;;5055246;28;20035;-77
2021/10/18 00:50:42;;;;;;;56.80;35.63;;;230.40;2252.80;;;;;;5072470;28;20707;-77
2021/10/18 00:53:09;;;;;;;52.83;36.42;;;230.40;2252.80;;;;;;5072676;28;20024;-76
2021/10/18 00:55:35;;;;;;;56.58;36.22;;;205.70;2252.80;;;;;;5072475;28;20032;-76
2021/10/18 00:58:01;;;;;;;55.25;36.72;;;205.70;2252.80;;;;;;5055141;28;20028;-76
2021/10/18 01:00:27;;;;;;;53.90;36.65;;;205.70;2252.80;;;;;;5055032;28;20391;-78
2021/10/18 01:02:52;;;;;;;53.08;33.17;;;205.70;2252.80;;;;;;5073008;28;20444;-79
2021/10/18 01:05:19;;;;;;;56.25;36.05;;;230.40;2252.80;;;;;;5056717;28;20075;-77
2021/10/18 01:07:46;;;;;;;50.50;35.25;;;230.40;2252.80;;;;;;5061503;28;20023;-78
2021/10/18 01:10:12;;;;;;;51.00;36.40;;;230.40;2252.80;;;;;;5054442;28;20158;-76
2021/10/18 01:12:38;;;;;;;57.63;37.03;;;205.70;2252.80;;;;;;5072495;28;20095;-76
2021/10/18 01:15:05;;;;;;;52.72;36.08;;;205.70;2252.80;;;;;;5054200;28;20283;-78
2021/10/18 01:17:30;;;;;;;52.22;35.08;;;205.70;2252.80;;;;;;5058508;28;20021;-78
2021/10/18 01:19:56;;;;;;;58.45;36.70;;;205.70;2252.80;;;;;;5054716;28;20016;-78
2021/10/18 01:22:22;;;;;;;61.65;36.63;;;205.60;2252.80;;;;;;5054362;28;20025;-78
2021/10/18 01:24:48;;;;;;;54.85;36.70;;;205.60;2252.80;;;;;;5054465;28;20039;-78
2021/10/18 01:27:14;;;;;;;55.70;34.88;;;205.60;2252.80;;;;;;5065515;28;20035;-79
2021/10/18 01:29:40;;;;;;;55.50;35.58;;;205.60;2252.80;;;;;;5056880;28;20082;-78
2021/10/18 01:32:08;;;;;;;49.35;35.42;;;205.60;2252.80;;;;;;5057737;28;20055;-78
2021/10/18 01:34:34;;;;;;;49.78;32.80;;;205.60;2252.80;;;;;;5054858;28;20033;-78
2021/10/18 01:37:02;;;;;;;54.65;37.72;;;205.50;2252.80;;;;;;5059586;28;20048;-78
2021/10/18 01:39:29;;;;;;;55.30;37.03;;;205.50;2252.80;;;;;;5054165;28;20523;-78
2021/10/18 01:41:54;;;;;;;55.75;34.83;;;205.40;2252.80;;;;;;5054241;28;20024;-78
2021/10/18 01:44:20;;;;;;;52.50;35.17;;;205.40;2252.80;;;;;;5079511;28;20054;-79
2021/10/18 01:46:46;;;;;;;57.00;37.20;;;205.30;2252.80;;;;;;5075278;28;20562;-78
2021/10/18 01:49:13;;;;;;;61.05;39.20;;;205.30;2252.80;;;;;;5071817;28;20111;-78
2021/10/18 01:51:39;;;;;;;60.55;39.38;;;205.30;2252.80;;;;;;5070864;28;20031;-77
2021/10/18 01:54:06;;;;;;;60.00;38.28;;;205.30;2252.80;;;;;;5070312;28;20051;-77
2021/10/18 01:56:33;;;;;;;57.40;38.10;;;205.30;2252.80;;;;;;5069790;28;20073;-78
2021/10/18 01:59:00;;;;;;;60.20;39.25;;;205.30;2252.80;;;;;;5058057;28;20036;-77
2021/10/18 02:01:26;;;;;;;67.63;41.58;;;205.30;2252.80;;;;;;5054190;28;20059;-78
2021/10/18 02:03:51;;;;;;;65.05;40.10;;;205.30;2252.80;;;;;;5070440;28;20052;-77
2021/10/18 02:06:17;;;;;;;60.00;38.88;;;205.30;2252.80;;;;;;5053681;28;20035;-77
2021/10/18 02:08:43;;;;;;;61.40;40.08;;;205.30;2252.80;;;;;;5053926;28;20024;-76
2021/10/18 02:11:10;;;;;;;63.85;40.15;;;205.30;2252.80;;;;;;5059497;28;20027;-76
2021/10/18 02:13:36;;;;;;;60.72;40.28;;;205.30;2252.80;;;;;;5053825;28;20422;-76
2021/10/18 02:16:02;;;;;;;64.25;44.35;;;205.30;2252.80;;;;;;5070892;28;20040;-76
2021/10/18 02:18:28;;;;;;;66.97;44.85;;;205.30;2252.80;;;;;;5070595;28;20423;-76
2021/10/18 02:20:59;;;;;;;70.43;44.88;;;205.30;2252.80;;;;;;5071274;28;20090;-75
2021/10/18 02:23:26;;;;;;;67.30;41.58;;;205.30;2252.80;;;;;;5063199;28;20032;-76
2021/10/18 02:25:52;;;;;;;63.53;42.08;;;205.30;2252.80;;;;;;5053157;28;20031;-76
2021/10/18 02:28:18;;;;;;;58.13;41.83;;;205.20;2252.80;;;;;;5061699;28;20020;-77
2021/10/18 02:30:44;;;;;;;63.22;45.30;;;205.20;2252.80;;;;;;5072334;28;20595;-77
2021/10/18 02:33:09;;;;;;;70.90;46.30;;;205.10;2252.80;;;;;;5072589;28;20029;-76
2021/10/18 02:35:35;;;;;;;68.32;45.08;;;205.10;2252.80;;;;;;5073170;28;20475;-78
2021/10/18 02:38:01;;;;;;;70.82;45.72;;;205.10;2252.80;;;;;;5072338;28;20024;-79
2021/10/18 02:40:26;;;;;;;74.95;47.28;;;205.00;2252.80;;;;;;5059957;28;20029;-78
2021/10/18 02:42:52;;;;;;;70.50;45.05;;;205.00;2252.80;;;;;;5072308;28;20729;-77
2021/10/18 02:45:18;;;;;;;69.15;46.80;;;205.00;2252.80;;;;;;5058766;28;20029;-78
2021/10/18 02:47:44;;;;;;;68.88;46.67;;;205.00;2252.80;;;;;;5076638;28;20503;-77
2021/10/18 02:50:10;;;;;;;75.32;48.50;;;205.00;2252.80;;;;;;5091221;28;20101;-77
2021/10/18 02:52:35;;;;;;;74.20;47.92;;;205.00;2252.80;;;;;;5063838;28;20017;-76
2021/10/18 02:55:01;;;;;;;79.25;48.03;;;204.90;2252.80;;;;;;5069812;28;20024;-78
2021/10/18 02:57:27;;;;;;;78.47;50.22;;;205.00;2252.80;;;;;;5067068;28;20397;-77
2021/10/18 02:59:53;;;;;;;76.60;49.28;;;205.00;2252.80;;;;;;5073064;28;20025;-78
2021/10/18 03:02:18;;;;;;;69.05;45.80;;;205.00;2252.80;;;;;;5055697;28;20467;-78
2021/10/18 03:04:46;;;;;;;73.22;48.67;;;204.90;2252.80;;;;;;5071757;28;20032;-78
2021/10/18 03:07:11;;;;;;;70.70;48.30;;;205.00;2252.80;;;;;;5073111;28;20089;-78
2021/10/18 03:09:37;;;;;;;70.03;48.97;;;204.90;2252.80;;;;;;5082263;28;20465;-77
2021/10/18 03:12:04;;;;;;;70.82;50.05;;;204.90;2252.80;;;;;;5078665;28;20483;-78
2021/10/18 03:14:29;;;;;;;74.50;49.13;;;204.90;2252.80;;;;;;5093438;28;20057;-77
2021/10/18 03:16:55;;;;;;;68.30;43.85;;;204.90;2252.80;;;;;;5090589;28;20128;-77
2021/10/18 03:19:21;;;;;;;67.68;44.83;;;204.90;2252.80;;;;;;5080414;28;20439;-78
2021/10/18 03:21:47;;;;;;;72.03;46.15;;;204.90;2252.80;;;;;;5090519;28;20024;-77
2021/10/18 03:24:12;;;;;;;76.00;49.22;;;204.90;2252.80;;;;;;5073007;28;20115;-76
2021/10/18 03:26:38;;;;;;;70.53;46.00;;;204.80;2252.80;;;;;;5070072;28;20028;-76
2021/10/18 03:29:04;;;;;;;69.18;47.92;;;204.80;2252.80;;;;;;5075692;28;20020;-76
2021/10/18 03:31:30;;;;;;;77.15;48.65;;;204.80;2252.80;;;;;;5075108;28;20029;-76
2021/10/18 03:33:55;;;;;;;78.35;51.95;;;204.80;2252.80;;;;;;5056989;28;20024;-76
2021/10/18 03:36:21;;;;;;;80.03;52.05;;;180.10;2252.80;;;;;;5074589;28;20104;-77
2021/10/18 03:38:47;;;;;;;78.10;52.88;;;180.00;2252.80;;;;;;5062750;28;20076;-76
2021/10/18 03:41:12;;;;;;;74.40;51.53;;;180.00;2252.80;;;;;;5074368;28;20380;-76
2021/10/18 03:43:38;;;;;;;76.53;51.17;;;180.00;2252.80;;;;;;5074771;28;20383;-76
2021/10/18 03:46:04;;;;;;;77.38;50.22;;;180.10;2252.80;;;;;;5076775;28;20021;-76
2021/10/18 03:48:30;;;;;;;72.80;49.63;;;180.10;2252.80;;;;;;5079845;28;20028;-76
2021/10/18 03:50:56;;;;;;;71.25;48.35;;;180.10;2252.80;;;;;;5070996;28;20138;-75
2021/10/18 03:53:22;;;;;;;78.47;49.78;;;180.00;2252.80;;;;;;5073814;28;20032;-77
2021/10/18 03:55:49;;;;;;;73.95;49.30;;;180.00;2252.80;;;;;;5074214;28;20035;-77
2021/10/18 03:58:15;;;;;;;85.22;51.58;;;180.00;2252.80;;;;;;5074105;28;20029;-76
2021/10/18 04:00:41;;;;;;;76.72;49.80;;;180.00;2252.80;;;;;;5076230;28;20063;-77
2021/10/18 04:03:06;;;;;;;79.78;50.67;;;180.00;2252.80;;;;;;5061820;28;20122;-76
2021/10/18 04:05:32;;;;;;;82.45;52.20;;;180.00;2252.80;;;;;;5065415;28;20479;-75
2021/10/18 04:07:58;;;;;;;77.93;50.72;;;180.00;2252.80;;;;;;5067943;28;20115;-75
2021/10/18 04:10:24;;;;;;;81.70;53.78;;;180.00;2252.80;;;;;;5079039;28;20047;-76
2021/10/18 04:12:50;;;;;;;92.47;54.45;;;180.00;2252.80;;;;;;5073814;28;20078;-76
2021/10/18 04:15:16;;;;;;;71.40;50.88;;;180.00;2252.80;;;;;;5076257;28;20082;-76
2021/10/18 04:17:42;;;;;;;72.18;48.40;;;180.00;2252.80;;;;;;5073610;28;20052;-75
2021/10/18 04:20:09;;;;;;;77.63;51.55;;;180.00;2252.80;;;;;;5060976;28;20020;-76
2021/10/18 04:22:34;;;;;;;83.03;48.28;;;179.90;2252.80;;;;;;5082400;28;20051;-75
2021/10/18 04:25:00;;;;;;;72.90;47.15;;;180.00;2252.80;;;;;;5082309;28;20075;-75
2021/10/18 04:27:26;;;;;;;80.43;50.13;;;179.90;2252.80;;;;;;5082446;28;20025;-76
2021/10/18 04:29:52;;;;;;;85.10;49.53;;;179.90;2252.80;;;;;;5073524;28;20017;-75
2021/10/18 04:32:18;;;;;;;74.95;49.85;;;179.80;2252.80;;;;;;5078593;28;20029;-76
2021/10/18 04:34:44;;;;;;;75.50;51.33;;;179.70;2252.80;;;;;;5073486;28;20032;-76
2021/10/18 04:37:10;;;;;;;77.35;49.92;;;179.70;2252.80;;;;;;5055734;28;20040;-76
2021/10/18 04:39:36;;;;;;;71.05;47.58;;;179.50;2252.80;;;;;;5073221;28;20082;-76
2021/10/18 04:42:02;;;;;;;76.93;51.97;;;179.50;2252.80;;;;;;5049283;28;20043;-75
2021/10/18 04:44:28;;;;;;;74.80;51.72;;;179.50;2252.80;;;;;;5076925;28;20029;-75
2021/10/18 04:46:53;;;;;;;79.90;51.75;;;179.50;2252.80;;;;;;5062923;28;20374;-75
2021/10/18 04:49:19;;;;;;;74.75;49.03;;;179.50;2252.80;;;;;;5077429;28;20438;-75
2021/10/18 04:51:45;;;;;;;75.45;46.58;;;179.50;2252.80;;;;;;5080676;28;20020;-75
2021/10/18 04:54:11;;;;;;;68.13;45.70;;;179.60;2252.80;;;;;;5073336;28;20055;-75
2021/10/18 04:56:37;;;;;;;71.30;44.72;;;179.60;2252.80;;;;;;5070362;28;20032;-75
2021/10/18 04:59:03;;;;;;;76.43;48.00;;;179.70;2252.80;;;;;;5070422;28;20020;-75
2021/10/18 05:01:28;;;;;;;70.63;42.00;;;179.70;2252.80;;;;;;5072799;28;20739;-76
2021/10/18 05:03:54;;;;;;;68.63;43.53;;;179.70;2252.80;;;;;;5075160;28;20028;-77
2021/10/18 05:06:20;;;;;;;83.55;45.45;;;179.70;2252.80;;;;;;5072653;28;20540;-76
2021/10/18 05:08:46;;;;;;;62.70;44.58;;;179.70;2252.80;;;;;;5073212;28;20020;-76
2021/10/18 05:11:12;;;;;;;66.68;43.75;;;179.70;2252.80;;;;;;5073236;28;20407;-76
2021/10/18 05:13:37;;;;;;;65.28;44.30;;;179.70;2252.80;;;;;;5072392;28;20074;-76
2021/10/18 05:16:04;;;;;;;72.88;43.47;;;179.70;2252.80;;;;;;5053301;28;20128;-76
2021/10/18 05:18:29;;;;;;;67.97;43.70;;;179.70;2252.80;;;;;;5054232;28;20047;-76
2021/10/18 05:20:55;;;;;;;72.05;46.67;;;179.70;2252.80;;;;;;5072897;28;20028;-75
2021/10/18 05:23:21;;;;;;;74.55;45.90;;;179.70;2252.80;;;;;;5071630;28;20029;-75
2021/10/18 05:25:47;;;;;;;66.90;41.90;;;179.70;2252.80;;;;;;5072388;28;20463;-75
2021/10/18 05:28:12;;;;;;;70.10;43.67;;;179.70;2252.80;;;;;;5074587;28;20031;-75
2021/10/18 05:30:38;;;;;;;76.35;46.35;;;179.70;2252.80;;;;;;5056134;28;20040;-76
2021/10/18 05:33:04;;;;;;;67.82;47.53;;;179.70;2252.80;;;;;;5054372;28;20123;-76
2021/10/18 05:35:30;;;;;;;71.72;48.05;;;179.70;2252.80;;;;;;5072414;28;20028;-75
2021/10/18 05:37:57;;;;;;;78.90;51.42;;;179.70;2252.80;;;;;;5074918;28;20063;-75
2021/10/18 05:40:23;;;;;;;78.97;52.35;;;179.90;2252.80;;;;;;5069454;28;20102;-75
2021/10/18 05:42:51;;;;;;;85.55;51.55;;;179.70;2252.80;;;;;;5071715;28;20059;-74
2021/10/18 05:45:17;;;;;;;70.20;47.50;;;179.70;2252.80;;;;;;5073289;28;20499;-77
2021/10/18 05:47:56;;;;;;;79.25;52.78;;;180.10;2252.80;;;;;;5072491;28;20037;-76
2021/10/18 05:50:24;;;;;;;86.75;54.50;;;179.90;2252.80;;;;;;5068365;28;20016;-76
2021/10/18 05:52:51;;;;;;;85.95;51.90;;;179.90;2252.80;;;;;;5072616;28;20024;-76
2021/10/18 05:55:16;;;;;;;77.63;50.30;;;179.90;2252.80;;;;;;5076177;28;20086;-75
2021/10/18 05:57:47;;;;;;;82.00;48.90;;;180.00;2252.80;;;;;;5070900;28;20483;-76
2021/10/18 06:00:14;;;;;;;70.35;45.72;;;180.00;2252.80;;;;;;5053679;28;20025;-77
2021/10/18 06:02:39;;;;;;;69.97;47.22;;;180.10;2252.80;;;;;;5054563;28;20029;-76
2021/10/18 06:05:05;;;;;;;65.63;43.53;;;204.80;2252.80;;;;;;5072467;28;20432;-77
2021/10/18 06:07:31;;;;;;;74.03;44.20;;;204.90;2252.80;;;;;;5072321;28;20016;-77
2021/10/18 06:09:57;;;;;;;72.13;46.20;;;204.80;2252.80;;;;;;5052231;28;20028;-77
2021/10/18 06:12:22;;;;;;;77.07;55.67;;;204.90;2252.80;;;;;;5056243;28;20468;-75
2021/10/18 06:14:48;;;;;;;70.80;49.92;;;205.00;2252.80;;;;;;5069659;28;20021;-75
2021/10/18 06:17:14;;;;;;;74.57;52.38;;;205.00;2252.80;;;;;;5050928;28;20424;-75
2021/10/18 06:19:40;;;;;;;76.07;51.63;;;205.10;2252.80;;;;;;5049912;28;20436;-76
2021/10/18 06:22:05;;;;;;;74.88;53.72;;;205.10;2252.80;;;;;;5049225;28;20051;-76
2021/10/18 06:24:32;;;;;;;72.72;53.38;;;205.10;2252.80;;;;;;5049490;28;20025;-76
2021/10/18 06:26:58;;;;;;;79.35;53.40;;;205.00;2252.80;;;;;;5048775;28;20380;-76
2021/10/18 06:29:25;;;;;;;73.68;60.33;;;205.00;2252.80;;;;;;5049534;28;20021;-75
2021/10/18 06:31:52;;;;;;;80.35;53.30;;;205.00;2252.80;;;;;;5053848;28;20136;-76
2021/10/18 06:34:18;;;;;;;79.40;51.70;;;205.00;2252.80;;;;;;5049859;28;20096;-76
2021/10/18 06:36:44;;;;;;;74.80;51.58;;;205.00;2252.80;;;;;;5050138;28;20491;-77
2021/10/18 06:39:10;;;;;;;82.93;61.75;;;205.10;2252.80;;;;;;5049213;28;20464;-76
2021/10/18 06:41:35;;;;;;;77.13;52.22;;;205.20;2252.80;;;;;;5050142;28;20035;-76
2021/10/18 06:44:01;;;;;;;83.88;56.33;;;205.30;2252.80;;;;;;5053642;28;20036;-76
2021/10/18 06:46:27;;;;;;;90.50;55.80;;;205.30;2252.80;;;;;;5055378;28;20467;-76
2021/10/18 06:48:53;;;;;;;82.43;54.90;;;205.40;2252.80;;;;;;5057932;28;20120;-76
2021/10/18 06:51:19;;;;;;;84.25;58.58;;;205.60;2252.80;;;;;;5049456;28;20044;-77
2021/10/18 06:53:48;;;;;;;84.93;56.58;;;205.70;2252.80;;;;;;5053927;28;20033;-77
2021/10/18 06:56:13;;;;;;;78.95;55.25;;;230.40;2252.80;;;;;;5056646;28;20094;-77
2021/10/18 06:58:39;;;;;;;87.65;52.95;;;230.60;2252.80;;;;;;5052871;28;20021;-77
2021/10/18 07:01:05;;;;;;;75.10;51.97;;;230.80;2252.80;;;;;;5052969;28;20021;-77
2021/10/18 07:03:31;;;;;;;82.65;53.40;;;230.90;2252.80;;;;;;5053197;28;20480;-77
2021/10/18 07:05:56;;;;;;;87.68;53.53;;;231.00;2252.80;;;;;;5055377;28;20029;-77
2021/10/18 07:08:22;;;;;;;73.95;50.72;;;231.10;2252.80;;;;;;5054641;28;20060;-78
2021/10/18 07:10:48;;;;;;;73.40;48.92;;;231.10;2252.80;;;;;;5060027;28;20020;-78
2021/10/18 07:13:14;;;;;;;72.32;50.20;;;231.20;2252.80;;;;;;5057428;28;20029;-77
2021/10/18 07:15:39;;;;;;;76.28;51.03;;;256.00;2252.80;;;;;;5045254;28;20052;-79
2021/10/18 07:18:08;;;;;;;72.85;47.00;;;256.10;2252.80;;;;;;5061911;28;20025;-78
2021/10/18 07:20:34;;;;;;;73.70;46.85;;;256.20;2252.80;;;;;;5067613;28;20110;-80
2021/10/18 07:23:01;;;;;;;71.50;45.40;;;256.40;2252.80;;;;;;5054753;28;20060;-78
2021/10/18 07:25:27;;;;;;;61.58;43.80;;;256.60;2252.80;;;;;;5067085;28;20020;-78
2021/10/18 07:27:53;;;;;;;65.03;46.00;;;256.80;2252.80;;;;;;5050732;28;20032;-80
2021/10/18 07:30:20;;;;;;;65.30;45.13;;;281.60;2278.40;;;;;;5062107;28;20380;-76
2021/10/18 07:32:45;;;;;;;69.95;45.67;;;282.00;2278.40;;;;;;5052765;28;20021;-81
2021/10/18 07:35:14;;;;;;;56.13;39.83;;;282.30;2278.40;;;;;;5053941;28;20036;-80
2021/10/18 07:37:42;;;;;;;66.07;40.40;;;307.30;2304.00;;;;;;5052879;28;20025;-78
2021/10/18 07:40:09;;;;;;;50.50;36.08;;;307.50;2304.00;;;;;;5040371;28;20020;-79
2021/10/18 07:42:35;;;;;;;53.92;35.60;;;307.50;2304.00;;;;;;5048999;28;20435;-78
2021/10/18 07:45:01;;;;;;;56.47;35.97;;;307.90;2304.00;;;;;;5052326;28;20025;-77
2021/10/18 07:47:27;;;;;;;56.05;36.47;;;332.80;2329.60;;;;;;5068596;28;20035;-75
2021/10/18 07:49:54;;;;;;;45.50;32.88;;;333.10;2329.60;;;;;;5055332;28;20025;-76
2021/10/18 07:52:20;;;;;;;47.80;32.70;;;333.20;2329.60;;;;;;5052098;28;20468;-76
2021/10/18 07:54:50;;;;;;;42.70;29.58;;;333.30;2329.60;;;;;;5049547;28;20029;-76
2021/10/18 07:57:16;;;;;;;40.03;29.70;;;333.50;2329.60;;;;;;5051231;28;20079;-76
2021/10/18 07:59:41;;;;;;;39.70;27.20;;;358.40;2329.60;;;;;;5051780;28;20025;-76
2021/10/18 08:02:07;;;;;;;33.78;24.08;;;358.60;2329.60;;;;;;5051667;28;20125;-78
2021/10/18 08:04:33;;;;;;;29.52;21.80;;;358.80;2329.60;;;;;;5052049;28;20033;-76
2021/10/18 08:06:58;;;;;;;33.45;22.40;;;358.80;2329.60;;;;;;5052266;28;20165;-76
2021/10/18 08:09:26;;;;;;;29.02;21.52;;;359.20;2329.60;;;;;;5051959;28;20036;-76
2021/10/18 08:11:53;;;;;;;29.25;21.33;;;384.00;2329.60;;;;;;5051896;28;20416;-76
2021/10/18 08:14:19;;;;;;;28.90;20.35;;;384.20;2329.60;;;;;;5051627;28;20053;-76
2021/10/18 08:16:46;;;;;;;28.00;18.27;;;384.50;2329.60;;;;;;5050483;28;20045;-75
2021/10/18 08:19:11;;;;;;;27.48;18.95;;;384.60;2329.60;;;;;;5063217;28;20150;-75
2021/10/18 08:21:37;;;;;;;27.77;18.13;;;384.70;2329.60;;;;;;5051390;28;20126;-75
2021/10/18 08:24:03;;;;;;;24.35;18.02;;;384.80;2329.60;;;;;;5051252;28;20036;-75
2021/10/18 08:26:29;;;;;;;28.15;18.73;;;409.60;2355.20;;;;;;5051325;28;20048;-75
2021/10/18 08:28:55;;;;;;;23.13;16.92;;;409.80;2355.20;;;;;;5049728;28;20407;-75
2021/10/18 08:31:20;;;;;;;24.48;17.30;;;410.20;2355.20;;;;;;5066599;28;20025;-75
2021/10/18 08:33:46;;;;;;;24.17;17.75;;;410.50;2355.20;;;;;;5050071;28;20037;-75
2021/10/18 08:36:12;;;;;;;26.33;17.85;;;435.40;2355.20;;;;;;5066721;28;20025;-75
2021/10/18 08:41:15;;;;;;;21.77;16.27;;;435.80;2355.20;;;;;;5051168;28;20354;-74
2021/10/18 08:46:09;;;;;;;24.13;16.67;;;436.10;2355.20;;;;;;5051012;28;20025;-75
2021/10/18 08:48:35;;;;;;;25.42;17.55;;;460.80;2380.80;;;;;;5037043;28;20127;-75
2021/10/18 08:51:01;;;;;;;24.33;18.63;;;461.20;2380.80;;;;;;5049597;28;20459;-75
2021/10/18 08:53:27;;;;;;;23.33;17.88;;;461.50;2380.80;;;;;;5051219;28;20061;-75
2021/10/18 08:55:53;;;;;;;22.95;16.60;;;486.40;2380.80;;;;;;5051596;28;20110;-75
2021/10/18 08:58:19;;;;;;;22.00;16.65;;;486.60;2380.80;;;;;;5052728;28;20063;-75
2021/10/18 09:00:53;;;;;;;23.67;16.83;;;486.80;2380.80;;;;;;5051014;28;20502;-75
2021/10/18 09:03:23;;;;;;;23.88;17.88;;;486.90;2380.80;;;;;;5052436;28;20035;-75
2021/10/18 09:06:09;;;;;;;23.60;14.73;;;487.10;2380.80;;;;;;5055410;28;20113;-75
2021/10/18 09:08:38;;;;;;;18.88;14.20;;;512.00;2380.80;;;;;;5052002;28;20025;-75
2021/10/18 09:11:15;;;;;;;17.83;13.55;;;512.10;2380.80;;;;;;5052201;28;20032;-75
2021/10/18 09:13:50;;;;;;;17.20;13.32;;;512.20;2380.80;;;;;;5054002;28;20095;-76
2021/10/18 09:16:32;;;;;;;16.77;12.38;;;512.40;2380.80;;;;;;5066760;28;20048;-75
2021/10/18 09:19:10;;;;;;;17.17;12.00;;;512.80;2380.80;;;;;;5062467;28;20044;-75
2021/10/18 09:21:39;;;;;;;14.73;10.93;;;537.60;2406.40;;;;;;5060293;28;20243;-75
2021/10/18 09:24:07;;;;;;;17.40;12.60;;;538.00;2406.40;;;;;;5067618;28;20025;-75
2021/10/18 09:26:34;;;;;;;16.35;11.18;;;538.10;2406.40;;;;;;5046955;28;20017;-76
2021/10/18 09:29:05;;;;;;;13.50;9.80;;;538.50;2380.80;;;;;;5054848;28;20017;-75
2021/10/18 09:31:31;;;;;;;15.10;10.93;;;538.40;2355.20;;;;;;5058539;28;20041;-75
2021/10/18 09:34:11;;;;;;;15.20;10.65;;;563.40;2329.60;;;;;;5065507;28;20064;-75
2021/10/18 09:36:38;;;;;;;15.43;10.18;;;563.30;2252.80;;;;;;5048589;28;20032;-75
2021/10/18 09:39:26;;;;;;;15.07;10.15;;;563.20;2278.40;;;;;;5048999;28;20060;-75
2021/10/18 09:42:15;;;;;;;17.45;11.90;;;563.30;2304.00;;;;;;5036648;28;20021;-76
2021/10/18 10:53:55;;;;;;;10.30;6.65;;;615.00;1664.00;;;;;;5072506;28;20118;-76
2021/10/18 10:56:26;;;;;;;7.50;5.50;;;614.50;1664.00;;;;;;5065736;28;20047;-76
2021/10/18 10:59:24;;;;;;;13.50;6.68;;;614.40;1664.00;;;;;;5054677;28;20113;-76
2021/10/18 11:01:52;;;;;;;8.82;5.93;;;614.40;1664.00;;;;;;5072532;28;20021;-76
2021/10/18 11:04:32;;;;;;;11.20;5.60;;;614.60;1638.40;;;;;;5072724;28;20024;-76
2021/10/18 11:07:03;;;;;;;10.77;7.03;;;614.80;1638.40;;;;;;5071011;28;20020;-76
2021/10/18 11:09:52;;;;;;;17.60;10.88;;;640.00;1612.80;;;;;;5070988;28;20376;-76
2021/10/18 11:12:17;;;;;;;11.18;8.50;;;640.10;1561.60;;;;;;5054666;28;20063;-76
2021/10/18 11:15:08;;;;;;;10.15;5.78;;;589.50;1664.00;;;;;;5054590;28;20507;-76
2021/10/18 11:17:46;;;;;;;7.82;5.68;;;564.10;1689.60;;;;;;5043160;28;20044;-76
2021/10/18 11:20:27;;;;;;;10.70;5.53;;;563.90;1689.60;;;;;;5056105;28;20024;-78
2021/10/18 11:22:58;;;;;;;8.88;5.55;;;588.80;1664.00;;;;;;5045493;28;20048;-76
2021/10/18 11:25:25;;;;;;;10.52;6.43;;;563.60;1715.20;;;;;;5056616;28;20071;-76
2021/10/18 11:27:53;;;;;;;8.82;6.10;;;588.90;1715.20;;;;;;5073780;28;20020;-77
2021/10/18 11:30:22;;;;;;;8.05;5.88;;;563.90;1715.20;;;;;;5073869;28;20036;-77
2021/10/18 11:33:16;;;;;;;10.55;6.78;;;589.50;1664.00;;;;;;5055938;28;20426;-76
2021/10/18 11:35:44;;;;;;;11.80;8.48;;;564.00;1715.20;;;;;;5072799;28;20054;-77
2021/10/18 11:38:15;;;;;;;11.30;7.50;;;563.90;1766.40;;;;;;5072856;28;20117;-77
2021/10/18 11:40:49;;;;;;;10.68;6.80;;;589.20;1689.60;;;;;;5063687;28;20040;-77
2021/10/18 11:43:26;;;;;;;13.05;7.15;;;614.80;1612.80;;;;;;5054587;28;20032;-77
2021/10/18 11:45:54;;;;;;;9.23;6.18;;;640.30;1561.60;;;;;;5064331;28;20410;-76
2021/10/18 11:48:29;;;;;;;8.15;5.35;;;640.80;1536.00;;;;;;5074151;28;20032;-77
2021/10/18 11:50:58;;;;;;;7.70;5.60;;;666.00;1484.80;;;;;;5072719;28;20443;-77
2021/10/18 11:53:26;;;;;;;11.68;6.95;;;666.50;1484.80;;;;;;5076632;28;20031;-76
2021/10/18 11:55:57;;;;;;;9.32;6.90;;;666.20;1484.80;;;;;;5058216;28;20119;-78
2021/10/18 11:58:29;;;;;;;11.77;6.53;;;666.20;1484.80;;;;;;5066754;28;20024;-77
2021/10/18 12:01:01;;;;;;;9.93;6.65;;;666.20;1484.80;;;;;;5056938;28;20067;-76
2021/10/18 12:03:28;;;;;;;8.30;6.20;;;666.20;1484.80;;;;;;5071518;28;20033;-77
2021/10/18 12:05:56;;;;;;;12.02;7.60;;;666.20;1433.60;;;;;;5056557;28;20752;-77
2021/10/18 12:08:27;;;;;;;10.65;7.90;;;691.20;1433.60;;;;;;5067734;28;20028;-77
2021/10/18 12:10:53;;;;;;;8.52;6.40;;;691.40;1433.60;;;;;;5076086;28;20073;-77
2021/10/18 12:13:26;;;;;;;9.68;7.20;;;640.70;1459.20;;;;;;5079474;28;20024;-77
2021/10/18 12:16:04;;;;;;;10.73;8.10;;;640.40;1484.80;;;;;;5062954;28;20036;-77
2021/10/18 12:18:30;;;;;;;11.95;8.48;;;640.40;1484.80;;;;;;5053626;28;20520;-76
2021/10/18 12:21:04;;;;;;;13.65;6.70;;;640.20;1510.40;;;;;;5061916;28;20055;-77
2021/10/18 12:23:47;;;;;;;13.38;8.55;;;640.20;1484.80;;;;;;5075024;28;20076;-76
2021/10/18 12:26:20;;;;;;;20.92;12.00;;;615.20;1536.00;;;;;;5077843;28;20039;-77
2021/10/18 12:28:46;;;;;;;16.10;10.40;;;589.40;1612.80;;;;;;5054216;28;20021;-76
2021/10/18 12:31:30;;;;;;;15.82;8.82;;;588.90;1664.00;;;;;;5072586;28;20035;-76
2021/10/18 12:34:22;;;;;;;13.35;8.70;;;563.70;1689.60;;;;;;5061678;28;20037;-74
2021/10/18 12:36:53;;;;;;;15.27;8.25;;;563.20;1715.20;;;;;;5051173;28;20075;-76
2021/10/18 12:39:36;;;;;;;11.18;6.93;;;538.30;1715.20;;;;;;5053380;28;20097;-76
2021/10/18 12:42:04;;;;;;;11.00;6.68;;;538.30;1715.20;;;;;;5071935;28;20082;-76
2021/10/18 12:44:32;;;;;;;10.48;7.57;;;538.00;1740.80;;;;;;5053061;28;20039;-76
2021/10/18 12:46:58;;;;;;;9.20;7.13;;;537.80;1766.40;;;;;;5070245;28;20082;-76
2021/10/18 12:49:34;;;;;;;11.82;7.25;;;512.90;1740.80;;;;;;5071846;28;20104;-76
2021/10/18 12:52:05;;;;;;;10.43;7.35;;;512.70;1766.40;;;;;;5071245;28;20066;-76
2021/10/18 12:54:39;;;;;;;9.50;6.93;;;512.40;1792.00;;;;;;5056299;28;20140;-76
2021/10/18 12:57:10;;;;;;;12.88;8.02;;;512.20;1843.20;;;;;;5073017;28;20086;-78
2021/10/18 12:59:59;;;;;;;11.73;8.90;;;512.10;1868.80;;;;;;5057822;28;20067;-75
2021/10/18 13:02:26;;;;;;;10.23;6.45;;;512.00;1868.80;;;;;;5070165;28;20247;-75
2021/10/18 13:05:09;;;;;;;12.75;7.72;;;487.20;1894.40;;;;;;5076499;28;20409;-75
2021/10/18 13:07:56;;;;;;;15.35;8.32;;;512.30;1868.80;;;;;;5071477;28;20029;-75
2021/10/18 13:10:24;;;;;;;12.75;8.27;;;512.40;1868.80;;;;;;5076827;28;20040;-75
2021/10/18 13:12:50;;;;;;;10.15;7.43;;;538.00;1843.20;;;;;;5051345;28;20029;-75
2021/10/18 13:15:17;;;;;;;17.90;11.07;;;538.30;1817.60;;;;;;5068122;28;20124;-74
2021/10/18 13:17:45;;;;;;;19.25;9.25;;;538.40;1817.60;;;;;;5070518;28;20494;-75
2021/10/18 13:20:14;;;;;;;28.00;17.75;;;563.50;1817.60;;;;;;5054443;28;20027;-74